Kempsey, United Kingdom
Current Conditions -  °F | °C
As of 6:50 PM on Saturday 25 Oct 2014 (Local Time) from EGBJ Reporting Station
Scattered Clouds Scattered Clouds  
Wind Chill: 55°   Ceiling: Unl
Heat Index: 55°   Visibility: 6mi
Dew Point: 50°   Wind: 12mph
Humidity: 82%   Direction: 210°SSW
Pressure: 30.06"   Gusts: NA
Location:  52.14°N, 2.22°W
Report Text: EGBJ 251750Z 21010KT 9999 FEW012 SCT025 13/10 Q1018
Loading
Personal Weather Stations






























Interactive Weather Map
Tropical Storm Tracking
New forecast layout! Learn more

10-Day Weather Forecast

Advertisements
Track Severe Weather on mobile